Time;durP1;ratioP1;P1;durP2;ratioP2;P2;SDS_P1;SDS_P2;PMS_P1;PMS_P2;Temp;Humidity;BMP_temperature;BMP_pressure;BME280_temperature;BME280_humidity;BME280_pressure;Samples;Min_cycle;Max_cycle;Signal;HPM_P1;HPM_P2
2022/12/20 00:00:19;;;;;;;;;;;21.40;31.00;;;;;;500420;237;2269;-41
2022/12/20 00:02:20;;;;;;;;;;;21.60;30.90;;;;;;500279;237;1679;-40
2022/12/20 00:04:24;;;;;;;;;;;21.80;30.50;;;;;;500407;237;2123;-43
2022/12/20 00:06:26;;;;;;;;;;;22.00;30.30;;;;;;500226;237;2066;-44
2022/12/20 00:08:28;;;;;;;;;;;22.10;30.00;;;;;;500380;237;2243;-43
2022/12/20 00:10:29;;;;;;;;;;;22.30;30.00;;;;;;500416;237;1974;-44
2022/12/20 00:12:30;;;;;;;;;;;22.40;29.90;;;;;;500251;237;2222;-44
2022/12/20 00:14:32;;;;;;;;;;;22.40;29.80;;;;;;500209;237;1854;-44
2022/12/20 00:16:33;;;;;;;;;;;22.60;29.70;;;;;;500381;237;2169;-44
2022/12/20 00:18:35;;;;;;;;;;;22.60;29.70;;;;;;500354;237;3118;-44
2022/12/20 00:20:36;;;;;;;;;;;22.70;29.60;;;;;;500212;238;2123;-43
2022/12/20 00:22:38;;;;;;;;;;;22.70;29.50;;;;;;500202;237;2713;-43
2022/12/20 00:24:39;;;;;;;;;;;22.70;29.50;;;;;;500285;237;1911;-40
2022/12/20 00:26:40;;;;;;;;;;;22.80;29.50;;;;;;500224;237;2598;-44
2022/12/20 00:28:41;;;;;;;;;;;22.80;29.40;;;;;;500265;237;1990;-41
2022/12/20 00:30:43;;;;;;;;;;;22.80;29.40;;;;;;500346;237;2101;-40
2022/12/20 00:32:44;;;;;;;;;;;22.90;29.30;;;;;;500358;237;1725;-44
2022/12/20 00:34:46;;;;;;;;;;;22.90;29.30;;;;;;500506;237;1896;-43
2022/12/20 00:36:47;;;;;;;;;;;22.90;29.30;;;;;;500385;237;1744;-43
2022/12/20 00:38:49;;;;;;;;;;;23.00;29.30;;;;;;500523;237;2630;-41
2022/12/20 00:40:50;;;;;;;;;;;23.00;29.20;;;;;;500618;237;1636;-44
2022/12/20 00:42:52;;;;;;;;;;;23.00;29.20;;;;;;500595;237;2176;-43
2022/12/20 00:44:53;;;;;;;;;;;23.00;29.20;;;;;;500491;237;1756;-41
2022/12/20 00:46:55;;;;;;;;;;;23.10;29.20;;;;;;500632;237;1631;-43
2022/12/20 00:48:56;;;;;;;;;;;23.10;29.10;;;;;;500471;237;1946;-43
2022/12/20 00:50:59;;;;;;;;;;;23.10;29.10;;;;;;500724;237;1591;-41
2022/12/20 00:53:00;;;;;;;;;;;23.10;29.10;;;;;;500644;237;2537;-42
2022/12/20 00:55:02;;;;;;;;;;;23.20;29.10;;;;;;500524;237;1699;-43
2022/12/20 00:57:03;;;;;;;;;;;23.20;29.10;;;;;;500368;237;2436;-43
2022/12/20 00:59:04;;;;;;;;;;;23.20;29.10;;;;;;500593;237;1366;-40
2022/12/20 01:01:06;;;;;;;;;;;23.20;29.10;;;;;;500460;238;1905;-41
2022/12/20 01:03:07;;;;;;;;;;;23.20;29.10;;;;;;500506;237;2168;-42
2022/12/20 01:05:08;;;;;;;;;;;23.20;29.00;;;;;;500613;237;1955;-43
2022/12/20 01:07:13;;;;;;;;;;;23.30;29.00;;;;;;500246;237;2091;-41
2022/12/20 01:09:14;;;;;;;;;;;23.30;29.00;;;;;;500474;237;2112;-43
2022/12/20 01:11:15;;;;;;;;;;;23.30;29.00;;;;;;500336;237;1924;-43
2022/12/20 01:13:17;;;;;;;;;;;23.30;29.00;;;;;;500454;237;1801;-41
2022/12/20 01:15:18;;;;;;;;;;;23.30;29.00;;;;;;500455;237;1779;-44
2022/12/20 01:17:20;;;;;;;;;;;23.30;29.00;;;;;;500569;237;1662;-43
2022/12/20 01:19:21;;;;;;;;;;;23.30;29.00;;;;;;500375;237;1858;-44
2022/12/20 01:21:23;;;;;;;;;;;23.30;29.00;;;;;;500288;237;1760;-41
2022/12/20 01:23:24;;;;;;;;;;;23.30;28.90;;;;;;500272;237;2176;-43
2022/12/20 01:25:25;;;;;;;;;;;23.40;29.00;;;;;;500160;237;1896;-44
2022/12/20 01:27:27;;;;;;;;;;;23.40;28.90;;;;;;500157;237;2217;-44
2022/12/20 01:29:29;;;;;;;;;;;23.40;28.90;;;;;;500145;237;2268;-44
2022/12/20 01:31:30;;;;;;;;;;;23.40;28.90;;;;;;500195;237;2361;-41
2022/12/20 01:33:31;;;;;;;;;;;23.40;28.90;;;;;;500257;237;1964;-44
2022/12/20 01:35:32;;;;;;;;;;;23.40;28.90;;;;;;500383;237;1990;-44
2022/12/20 01:37:34;;;;;;;;;;;23.50;28.90;;;;;;500274;237;2402;-41
2022/12/20 01:39:36;;;;;;;;;;;23.50;28.90;;;;;;500392;237;1682;-44
2022/12/20 01:41:37;;;;;;;;;;;23.50;28.90;;;;;;500522;237;1716;-42
2022/12/20 01:43:38;;;;;;;;;;;23.50;28.80;;;;;;500401;237;2156;-43
2022/12/20 01:45:39;;;;;;;;;;;23.50;28.90;;;;;;500448;237;1684;-43
2022/12/20 01:47:41;;;;;;;;;;;23.50;28.90;;;;;;500544;237;1716;-41
2022/12/20 01:49:42;;;;;;;;;;;23.50;28.90;;;;;;500678;237;1716;-44
2022/12/20 01:51:44;;;;;;;;;;;23.50;28.80;;;;;;500569;237;2186;-40
2022/12/20 01:53:45;;;;;;;;;;;23.50;28.80;;;;;;500791;237;1741;-44
2022/12/20 01:55:47;;;;;;;;;;;23.60;28.90;;;;;;500540;237;2344;-40
2022/12/20 01:57:50;;;;;;;;;;;23.60;28.90;;;;;;500528;237;2822;-40
2022/12/20 01:59:49;;;;;;;;;;;23.60;28.80;;;;;;500338;238;2228;-43
2022/12/20 02:01:51;;;;;;;;;;;23.60;28.90;;;;;;500453;237;1651;-43
2022/12/20 02:03:53;;;;;;;;;;;23.60;28.90;;;;;;500495;237;2180;-43
2022/12/20 02:05:54;;;;;;;;;;;23.60;28.80;;;;;;500574;237;2856;-44
2022/12/20 02:07:56;;;;;;;;;;;23.60;28.80;;;;;;500472;237;1694;-43
2022/12/20 02:09:57;;;;;;;;;;;23.60;28.80;;;;;;500630;237;1762;-42
2022/12/20 02:11:59;;;;;;;;;;;23.60;28.80;;;;;;500432;237;1932;-43
2022/12/20 02:14:00;;;;;;;;;;;23.60;28.80;;;;;;500612;237;1661;-44
2022/12/20 02:16:02;;;;;;;;;;;23.60;28.80;;;;;;500481;237;1890;-44
2022/12/20 02:18:03;;;;;;;;;;;23.60;28.80;;;;;;500615;237;1711;-44
2022/12/20 02:20:05;;;;;;;;;;;23.70;28.80;;;;;;500513;237;1792;-43
2022/12/20 02:22:07;;;;;;;;;;;23.60;28.90;;;;;;500843;237;1726;-43
2022/12/20 02:24:08;;;;;;;;;;;23.50;28.90;;;;;;500736;237;2152;-44
2022/12/20 02:26:10;;;;;;;;;;;23.30;29.00;;;;;;500490;237;1714;-43
2022/12/20 02:28:11;;;;;;;;;;;23.10;29.20;;;;;;500715;237;1665;-40
2022/12/20 02:30:13;;;;;;;;;;;23.00;29.50;;;;;;500488;237;1873;-44
2022/12/20 02:32:17;;;;;;;;;;;22.80;29.70;;;;;;500869;237;1873;-43
2022/12/20 02:34:19;;;;;;;;;;;22.60;29.80;;;;;;500454;237;2139;-43
2022/12/20 02:36:20;;;;;;;;;;;22.50;29.90;;;;;;500388;237;1927;-43
2022/12/20 02:38:21;;;;;;;;;;;22.50;30.00;;;;;;500404;237;2143;-43
2022/12/20 02:40:23;;;;;;;;;;;22.40;30.00;;;;;;500486;237;2223;-40
2022/12/20 02:42:25;;;;;;;;;;;22.40;30.10;;;;;;500445;237;1678;-43
2022/12/20 02:46:45;;;;;;;;;;;22.20;30.20;;;;;;500368;238;1919;-44
2022/12/20 02:48:47;;;;;;;;;;;22.20;30.40;;;;;;500293;237;1849;-41
2022/12/20 02:50:49;;;;;;;;;;;22.10;30.40;;;;;;500272;237;1695;-43
2022/12/20 02:52:50;;;;;;;;;;;22.10;30.50;;;;;;500535;237;2202;-42
2022/12/20 02:54:52;;;;;;;;;;;22.10;30.60;;;;;;500464;237;2178;-44
2022/12/20 02:56:54;;;;;;;;;;;22.00;30.50;;;;;;500405;237;2002;-43
2022/12/20 02:58:55;;;;;;;;;;;22.00;30.60;;;;;;500309;237;1830;-43
2022/12/20 03:00:56;;;;;;;;;;;22.00;30.60;;;;;;500342;237;2161;-44
2022/12/20 03:05:17;;;;;;;;;;;22.00;30.70;;;;;;500318;238;2148;-43
2022/12/20 03:07:19;;;;;;;;;;;21.90;30.70;;;;;;500288;237;2574;-43
2022/12/20 03:09:20;;;;;;;;;;;21.90;30.70;;;;;;500601;237;1605;-43
2022/12/20 03:11:22;;;;;;;;;;;21.90;30.70;;;;;;500432;237;1814;-43
2022/12/20 03:13:23;;;;;;;;;;;21.90;30.80;;;;;;500728;237;1653;-43
2022/12/20 03:15:25;;;;;;;;;;;21.90;30.80;;;;;;500394;237;2969;-44
2022/12/20 03:17:26;;;;;;;;;;;21.90;30.80;;;;;;500477;237;1726;-43
2022/12/20 03:19:28;;;;;;;;;;;21.80;30.80;;;;;;500389;237;2077;-43
2022/12/20 03:21:30;;;;;;;;;;;21.80;30.90;;;;;;500535;237;1399;-43
2022/12/20 03:23:31;;;;;;;;;;;21.90;30.90;;;;;;500485;237;1700;-43
2022/12/20 03:25:33;;;;;;;;;;;21.80;30.90;;;;;;500389;237;2120;-42
2022/12/20 03:27:34;;;;;;;;;;;21.80;30.90;;;;;;500606;237;1828;-43
2022/12/20 03:29:36;;;;;;;;;;;21.80;31.00;;;;;;500319;237;1764;-43
2022/12/20 03:31:37;;;;;;;;;;;21.80;30.90;;;;;;500426;237;2247;-44
2022/12/20 03:33:38;;;;;;;;;;;21.70;30.90;;;;;;500500;237;1726;-41
2022/12/20 03:35:40;;;;;;;;;;;21.70;30.90;;;;;;500657;237;2650;-43
2022/12/20 03:37:42;;;;;;;;;;;21.70;31.00;;;;;;500499;237;1899;-44
2022/12/20 03:39:43;;;;;;;;;;;21.70;31.00;;;;;;500686;237;1255;-40
2022/12/20 03:41:45;;;;;;;;;;;21.60;30.90;;;;;;500486;237;1868;-43
2022/12/20 03:43:47;;;;;;;;;;;21.60;31.00;;;;;;500802;237;2184;-44
2022/12/20 03:45:48;;;;;;;;;;;21.70;31.00;;;;;;500251;237;2518;-43
2022/12/20 03:47:50;;;;;;;;;;;21.60;31.00;;;;;;500335;237;1686;-44
2022/12/20 03:49:51;;;;;;;;;;;21.60;31.00;;;;;;500509;237;1755;-43
2022/12/20 03:51:53;;;;;;;;;;;21.70;31.10;;;;;;500468;237;2081;-43
2022/12/20 03:53:54;;;;;;;;;;;21.70;31.00;;;;;;500271;237;1895;-44
2022/12/20 03:55:56;;;;;;;;;;;21.60;31.00;;;;;;500177;237;2053;-43
2022/12/20 03:57:58;;;;;;;;;;;21.60;31.10;;;;;;500225;237;1684;-41
2022/12/20 03:59:59;;;;;;;;;;;21.60;31.10;;;;;;500166;237;1949;-43
2022/12/20 04:02:01;;;;;;;;;;;21.50;31.10;;;;;;500170;237;2137;-42
2022/12/20 04:04:02;;;;;;;;;;;21.60;31.20;;;;;;500190;237;2171;-44
2022/12/20 04:06:04;;;;;;;;;;;21.60;31.10;;;;;;500340;237;1833;-44
2022/12/20 04:08:05;;;;;;;;;;;21.50;31.10;;;;;;500129;237;3190;-43
2022/12/20 04:10:06;;;;;;;;;;;21.50;31.10;;;;;;500249;237;2230;-43
2022/12/20 04:12:08;;;;;;;;;;;21.50;31.00;;;;;;500396;237;2274;-43
2022/12/20 04:14:10;;;;;;;;;;;21.50;31.10;;;;;;500455;237;1956;-43
2022/12/20 04:16:11;;;;;;;;;;;21.60;31.10;;;;;;500372;237;2310;-44
2022/12/20 04:18:13;;;;;;;;;;;21.50;31.10;;;;;;500334;237;2159;-40
2022/12/20 04:20:21;;;;;;;;;;;21.50;31.10;;;;;;500404;237;2014;-44
2022/12/20 04:22:22;;;;;;;;;;;21.50;31.20;;;;;;500447;237;2044;-43
2022/12/20 04:24:24;;;;;;;;;;;21.50;31.20;;;;;;500424;237;2180;-43
2022/12/20 04:26:25;;;;;;;;;;;21.50;31.10;;;;;;500456;237;2151;-41
2022/12/20 04:28:27;;;;;;;;;;;21.50;31.10;;;;;;500429;237;1635;-43
2022/12/20 04:30:29;;;;;;;;;;;21.50;31.20;;;;;;500485;237;2611;-43
2022/12/20 04:32:30;;;;;;;;;;;21.50;31.20;;;;;;500524;237;2115;-44
2022/12/20 04:34:32;;;;;;;;;;;21.50;31.20;;;;;;500305;237;2099;-43
2022/12/20 04:36:34;;;;;;;;;;;21.50;31.20;;;;;;500346;237;1660;-42
2022/12/20 04:38:35;;;;;;;;;;;21.50;31.00;;;;;;500478;237;1686;-43
2022/12/20 04:40:36;;;;;;;;;;;21.60;31.10;;;;;;500503;237;2146;-41
2022/12/20 04:42:38;;;;;;;;;;;21.60;31.00;;;;;;500335;237;1450;-44
2022/12/20 04:44:39;;;;;;;;;;;21.60;30.90;;;;;;500327;237;3077;-43
2022/12/20 04:46:41;;;;;;;;;;;21.60;30.90;;;;;;500289;237;2587;-43
2022/12/20 04:48:42;;;;;;;;;;;21.60;30.90;;;;;;500504;237;1950;-43
2022/12/20 04:50:43;;;;;;;;;;;21.60;30.90;;;;;;500580;237;1834;-43
2022/12/20 04:55:04;;;;;;;;;;;21.70;31.00;;;;;;500332;238;2114;-43
2022/12/20 04:57:08;;;;;;;;;;;21.70;30.90;;;;;;500414;237;1738;-43
2022/12/20 04:59:07;;;;;;;;;;;21.70;30.90;;;;;;500071;238;2232;-43
2022/12/20 05:01:09;;;;;;;;;;;21.70;30.90;;;;;;500327;237;1986;-43
2022/12/20 05:03:11;;;;;;;;;;;21.70;30.90;;;;;;500177;237;1919;-42
2022/12/20 05:05:12;;;;;;;;;;;21.70;30.90;;;;;;500259;237;2148;-42
2022/12/20 05:07:14;;;;;;;;;;;21.70;30.90;;;;;;500327;237;1846;-42
2022/12/20 05:09:15;;;;;;;;;;;21.70;30.90;;;;;;500283;238;2063;-43
2022/12/20 05:11:17;;;;;;;;;;;21.70;30.90;;;;;;500349;237;1880;-40
2022/12/20 05:13:19;;;;;;;;;;;21.70;30.90;;;;;;500338;237;1613;-43
2022/12/20 05:15:21;;;;;;;;;;;21.70;30.90;;;;;;500362;237;2064;-43
2022/12/20 05:17:22;;;;;;;;;;;21.70;30.80;;;;;;500362;237;1930;-40
2022/12/20 05:19:23;;;;;;;;;;;21.70;30.80;;;;;;500500;237;2087;-42
2022/12/20 05:26:19;;;;;;;;;;;21.80;30.90;;;;;;500701;238;2157;-41
2022/12/20 05:28:20;;;;;;;;;;;21.80;30.80;;;;;;500592;237;1790;-43
2022/12/20 05:30:22;;;;;;;;;;;22.00;30.50;;;;;;500605;237;1574;-42
2022/12/20 05:32:23;;;;;;;;;;;22.20;30.20;;;;;;500813;237;2855;-42
2022/12/20 05:34:25;;;;;;;;;;;22.30;30.00;;;;;;500734;237;1558;-43
2022/12/20 05:36:27;;;;;;;;;;;22.30;30.00;;;;;;500821;237;1873;-41
2022/12/20 05:38:28;;;;;;;;;;;22.20;30.10;;;;;;500824;237;1775;-43
2022/12/20 05:40:30;;;;;;;;;;;22.10;30.20;;;;;;500725;237;2329;-43
2022/12/20 05:42:31;;;;;;;;;;;22.00;30.30;;;;;;501094;237;2149;-40
2022/12/20 05:44:33;;;;;;;;;;;22.00;30.40;;;;;;500608;237;2184;-40
2022/12/20 05:46:35;;;;;;;;;;;21.90;30.50;;;;;;500486;238;1937;-43
2022/12/20 05:48:38;;;;;;;;;;;21.90;30.60;;;;;;500530;237;1700;-43
2022/12/20 05:50:39;;;;;;;;;;;22.00;30.60;;;;;;500685;237;1663;-43
2022/12/20 05:52:40;;;;;;;;;;;21.90;30.60;;;;;;500565;237;1913;-40
2022/12/20 05:54:42;;;;;;;;;;;21.90;30.60;;;;;;500727;237;1855;-40
2022/12/20 05:56:43;;;;;;;;;;;21.90;30.60;;;;;;500457;237;2001;-44
2022/12/20 05:58:45;;;;;;;;;;;21.80;30.60;;;;;;500554;237;1917;-43
2022/12/20 06:00:46;;;;;;;;;;;21.80;30.70;;;;;;500371;237;2335;-43
2022/12/20 06:02:48;;;;;;;;;;;21.80;30.70;;;;;;500333;237;2069;-42
2022/12/20 06:04:50;;;;;;;;;;;21.80;30.70;;;;;;500401;237;2504;-43
2022/12/20 06:06:51;;;;;;;;;;;21.80;30.70;;;;;;500404;237;1787;-43
2022/12/20 06:08:54;;;;;;;;;;;21.80;30.70;;;;;;500257;237;2421;-43
2022/12/20 06:10:55;;;;;;;;;;;21.80;30.80;;;;;;500244;237;2309;-43
2022/12/20 06:12:56;;;;;;;;;;;21.80;30.70;;;;;;500185;237;2500;-43
2022/12/20 06:14:58;;;;;;;;;;;21.80;30.70;;;;;;500230;237;2373;-43
2022/12/20 06:16:59;;;;;;;;;;;21.90;30.70;;;;;;500320;237;1769;-42
2022/12/20 06:19:01;;;;;;;;;;;21.80;30.70;;;;;;500368;237;1657;-42
2022/12/20 06:21:02;;;;;;;;;;;21.80;30.70;;;;;;500447;238;2412;-43
2022/12/20 06:23:04;;;;;;;;;;;21.80;30.70;;;;;;500358;237;1671;-42
2022/12/20 06:25:08;;;;;;;;;;;21.80;30.70;;;;;;500576;237;2203;-43
2022/12/20 06:27:07;;;;;;;;;;;21.80;30.70;;;;;;500359;238;1808;-42
2022/12/20 06:29:12;;;;;;;;;;;21.90;30.70;;;;;;500480;237;1653;-41
2022/12/20 06:31:11;;;;;;;;;;;21.90;30.70;;;;;;500348;238;2132;-43
2022/12/20 06:33:12;;;;;;;;;;;21.80;30.70;;;;;;500462;238;2621;-41
2022/12/20 06:35:14;;;;;;;;;;;21.80;30.80;;;;;;500386;237;2006;-40
2022/12/20 06:37:18;;;;;;;;;;;21.80;30.80;;;;;;500680;238;1718;-42
2022/12/20 06:39:20;;;;;;;;;;;21.80;30.80;;;;;;500767;237;1304;-43
2022/12/20 06:41:21;;;;;;;;;;;21.70;30.80;;;;;;500259;237;1788;-43
2022/12/20 06:43:24;;;;;;;;;;;21.70;30.90;;;;;;500502;237;1811;-43
2022/12/20 06:45:25;;;;;;;;;;;21.70;30.90;;;;;;500372;237;2184;-43
2022/12/20 06:47:27;;;;;;;;;;;21.70;30.90;;;;;;500277;237;1662;-44
2022/12/20 06:49:28;;;;;;;;;;;21.70;31.00;;;;;;500464;237;1863;-43
2022/12/20 06:51:29;;;;;;;;;;;21.60;30.90;;;;;;500547;237;1815;-43
2022/12/20 06:53:30;;;;;;;;;;;21.60;31.00;;;;;;500513;237;1977;-41
2022/12/20 06:55:32;;;;;;;;;;;21.60;31.00;;;;;;500619;237;1604;-41
2022/12/20 06:57:33;;;;;;;;;;;21.60;31.00;;;;;;500516;237;1907;-43
2022/12/20 06:59:35;;;;;;;;;;;21.60;31.00;;;;;;500551;237;2216;-40
2022/12/20 07:01:36;;;;;;;;;;;21.60;31.10;;;;;;500483;237;1973;-41
2022/12/20 07:03:37;;;;;;;;;;;21.50;31.20;;;;;;500449;237;1845;-43
2022/12/20 07:05:39;;;;;;;;;;;21.50;31.10;;;;;;500448;237;2188;-43
2022/12/20 07:07:40;;;;;;;;;;;21.50;31.10;;;;;;500480;237;1926;-44
2022/12/20 07:09:42;;;;;;;;;;;21.50;31.10;;;;;;500345;238;2639;-43
2022/12/20 07:11:46;;;;;;;;;;;21.50;31.10;;;;;;500447;237;1329;-43
2022/12/20 07:13:49;;;;;;;;;;;21.50;31.10;;;;;;500436;237;1904;-43
2022/12/20 07:15:49;;;;;;;;;;;21.50;31.10;;;;;;500181;238;2504;-43
2022/12/20 07:17:50;;;;;;;;;;;21.50;31.00;;;;;;500333;237;1379;-42
2022/12/20 07:19:52;;;;;;;;;;;21.50;31.00;;;;;;500237;237;1707;-44
2022/12/20 07:21:53;;;;;;;;;;;21.50;31.00;;;;;;500374;237;1657;-44
2022/12/20 07:23:56;;;;;;;;;;;21.50;30.90;;;;;;500313;237;2070;-43
2022/12/20 07:25:58;;;;;;;;;;;21.60;30.90;;;;;;500359;237;2192;-40
2022/12/20 07:27:59;;;;;;;;;;;21.60;30.90;;;;;;500236;237;2102;-43
2022/12/20 07:30:01;;;;;;;;;;;21.60;30.90;;;;;;500204;237;1688;-43
2022/12/20 07:32:04;;;;;;;;;;;21.50;30.90;;;;;;500477;237;1596;-43
2022/12/20 07:34:06;;;;;;;;;;;21.60;30.90;;;;;;500502;237;2046;-41
2022/12/20 07:36:07;;;;;;;;;;;21.60;30.90;;;;;;500685;237;1397;-43
2022/12/20 07:38:09;;;;;;;;;;;21.50;30.90;;;;;;500439;237;1614;-43
2022/12/20 07:40:11;;;;;;;;;;;21.60;30.90;;;;;;500623;237;1735;-42
2022/12/20 07:42:13;;;;;;;;;;;21.60;30.90;;;;;;500451;237;1940;-44
2022/12/20 07:44:15;;;;;;;;;;;21.60;30.80;;;;;;500386;237;1823;-44
2022/12/20 07:46:16;;;;;;;;;;;21.60;30.90;;;;;;500408;237;2148;-42
2022/12/20 07:48:18;;;;;;;;;;;21.60;30.80;;;;;;500473;237;1580;-44
2022/12/20 07:50:19;;;;;;;;;;;21.60;30.90;;;;;;500250;237;2329;-42
2022/12/20 07:52:21;;;;;;;;;;;21.50;30.80;;;;;;500483;237;1951;-40
2022/12/20 07:54:22;;;;;;;;;;;21.60;30.90;;;;;;500410;237;2082;-41
2022/12/20 07:56:24;;;;;;;;;;;21.60;30.90;;;;;;500247;237;2129;-43
2022/12/20 07:58:26;;;;;;;;;;;21.50;30.80;;;;;;500139;237;1930;-42
2022/12/20 08:00:27;;;;;;;;;;;21.50;30.80;;;;;;500254;237;2097;-43
2022/12/20 08:02:29;;;;;;;;;;;21.50;30.80;;;;;;500341;237;1980;-44
2022/12/20 08:04:30;;;;;;;;;;;21.60;30.90;;;;;;500361;237;2536;-44
2022/12/20 08:06:32;;;;;;;;;;;21.50;30.80;;;;;;500112;237;2172;-43
2022/12/20 08:08:33;;;;;;;;;;;21.50;30.80;;;;;;500167;237;1676;-43
2022/12/20 08:10:34;;;;;;;;;;;21.60;30.90;;;;;;500305;237;2381;-44
2022/12/20 08:12:36;;;;;;;;;;;21.60;30.90;;;;;;500171;237;1875;-41
2022/12/20 08:14:37;;;;;;;;;;;21.50;30.80;;;;;;500348;237;1943;-43
2022/12/20 08:16:40;;;;;;;;;;;21.50;30.80;;;;;;500322;237;1253;-40
2022/12/20 08:18:41;;;;;;;;;;;21.50;30.80;;;;;;500435;237;1406;-43
2022/12/20 08:20:43;;;;;;;;;;;21.50;30.80;;;;;;500181;238;1276;-44
2022/12/20 08:22:44;;;;;;;;;;;21.50;30.80;;;;;;500302;237;1243;-43
2022/12/20 08:24:46;;;;;;;;;;;21.50;30.80;;;;;;500289;237;1427;-43
2022/12/20 08:26:47;;;;;;;;;;;21.50;30.80;;;;;;500400;237;2184;-43
2022/12/20 08:28:49;;;;;;;;;;;21.50;30.90;;;;;;500342;237;1736;-40
2022/12/20 08:30:50;;;;;;;;;;;21.50;30.80;;;;;;500494;237;1254;-44
2022/12/20 08:32:51;;;;;;;;;;;21.60;30.80;;;;;;500684;237;1340;-43
2022/12/20 08:34:54;;;;;;;;;;;21.70;30.60;;;;;;500265;237;1327;-43
2022/12/20 08:36:54;;;;;;;;;;;22.00;30.30;;;;;;500356;238;2176;-43
2022/12/20 08:38:56;;;;;;;;;;;22.20;30.00;;;;;;500295;237;1183;-42
2022/12/20 08:40:57;;;;;;;;;;;22.30;29.90;;;;;;500335;237;1238;-44
2022/12/20 08:42:59;;;;;;;;;;;22.50;29.70;;;;;;500624;237;1224;-42
2022/12/20 08:45:01;;;;;;;;;;;22.60;29.60;;;;;;500403;237;1252;-43
2022/12/20 08:47:02;;;;;;;;;;;22.70;29.50;;;;;;500454;237;2199;-40
2022/12/20 08:49:03;;;;;;;;;;;22.80;29.40;;;;;;500328;237;2097;-43
2022/12/20 08:51:05;;;;;;;;;;;22.80;29.30;;;;;;500505;237;1744;-42
2022/12/20 08:53:07;;;;;;;;;;;22.90;29.30;;;;;;500334;237;1734;-44
2022/12/20 08:55:08;;;;;;;;;;;23.00;29.20;;;;;;500376;237;1817;-43
2022/12/20 08:57:09;;;;;;;;;;;23.00;29.10;;;;;;500273;237;1369;-41
2022/12/20 08:59:11;;;;;;;;;;;23.10;29.10;;;;;;500177;237;1620;-41
2022/12/20 09:01:13;;;;;;;;;;;23.10;29.10;;;;;;500098;237;1609;-43
2022/12/20 09:03:14;;;;;;;;;;;23.10;29.00;;;;;;500208;238;2091;-42
2022/12/20 09:05:16;;;;;;;;;;;23.20;29.00;;;;;;500238;237;2592;-41
2022/12/20 09:07:17;;;;;;;;;;;23.20;28.90;;;;;;500462;237;2635;-43
2022/12/20 09:09:19;;;;;;;;;;;23.20;28.90;;;;;;500384;237;1652;-44
2022/12/20 09:11:20;;;;;;;;;;;23.30;28.90;;;;;;500375;237;1694;-40
2022/12/20 09:13:22;;;;;;;;;;;23.30;28.80;;;;;;500171;238;2125;-44
2022/12/20 09:15:24;;;;;;;;;;;23.40;28.80;;;;;;500265;237;1698;-44
2022/12/20 09:17:24;;;;;;;;;;;23.40;28.80;;;;;;500243;238;1940;-44
2022/12/20 09:19:26;;;;;;;;;;;23.40;28.80;;;;;;500304;237;2044;-44
2022/12/20 09:21:27;;;;;;;;;;;23.40;28.80;;;;;;500106;237;2072;-44
2022/12/20 09:23:29;;;;;;;;;;;23.40;28.70;;;;;;500296;237;1641;-44
2022/12/20 09:25:30;;;;;;;;;;;23.40;28.70;;;;;;500284;237;1579;-40
2022/12/20 09:27:31;;;;;;;;;;;23.50;28.70;;;;;;500379;237;2192;-44
2022/12/20 09:29:33;;;;;;;;;;;23.50;28.70;;;;;;500474;237;1171;-43
2022/12/20 09:31:35;;;;;;;;;;;23.50;28.70;;;;;;500614;237;1128;-43
2022/12/20 09:33:35;;;;;;;;;;;23.50;28.60;;;;;;500410;237;2160;-44
2022/12/20 09:35:37;;;;;;;;;;;23.50;28.60;;;;;;500487;237;1192;-44
2022/12/20 09:37:39;;;;;;;;;;;23.50;28.70;;;;;;500420;237;1283;-41
2022/12/20 09:39:40;;;;;;;;;;;23.60;28.60;;;;;;500316;237;1240;-43
2022/12/20 09:41:41;;;;;;;;;;;23.70;28.60;;;;;;500314;237;1657;-44
2022/12/20 09:43:43;;;;;;;;;;;23.70;28.60;;;;;;500242;237;1564;-44
2022/12/20 09:45:44;;;;;;;;;;;23.70;28.50;;;;;;500126;237;1968;-44
2022/12/20 09:47:45;;;;;;;;;;;23.80;28.50;;;;;;500183;237;2187;-44
2022/12/20 09:49:47;;;;;;;;;;;23.80;28.50;;;;;;500124;237;1422;-43
2022/12/20 09:51:48;;;;;;;;;;;23.80;28.50;;;;;;500177;237;1610;-44
2022/12/20 09:53:49;;;;;;;;;;;23.90;28.50;;;;;;500235;237;1698;-44
2022/12/20 09:55:50;;;;;;;;;;;23.90;28.40;;;;;;500383;237;1872;-44
2022/12/20 09:57:52;;;;;;;;;;;23.90;28.40;;;;;;500223;237;1208;-44
2022/12/20 09:59:53;;;;;;;;;;;24.00;28.40;;;;;;500259;237;2190;-44
2022/12/20 10:01:55;;;;;;;;;;;24.00;28.40;;;;;;500174;237;1770;-44
2022/12/20 10:03:57;;;;;;;;;;;23.90;28.40;;;;;;500081;237;1674;-44
2022/12/20 10:05:58;;;;;;;;;;;23.90;28.50;;;;;;500040;237;2149;-41
2022/12/20 10:08:00;;;;;;;;;;;23.80;28.60;;;;;;500089;237;1918;-44
2022/12/20 10:10:01;;;;;;;;;;;23.70;28.70;;;;;;500198;237;2150;-44
2022/12/20 10:12:03;;;;;;;;;;;23.50;28.90;;;;;;500097;237;1650;-40
2022/12/20 10:14:04;;;;;;;;;;;23.30;29.00;;;;;;500124;237;1620;-43
2022/12/20 10:16:05;;;;;;;;;;;23.20;29.20;;;;;;500002;237;2748;-43
2022/12/20 10:18:07;;;;;;;;;;;23.00;29.30;;;;;;500163;237;2179;-41
2022/12/20 10:20:08;;;;;;;;;;;23.00;29.40;;;;;;500240;237;1905;-43
2022/12/20 10:22:10;;;;;;;;;;;22.90;29.50;;;;;;499859;237;1748;-40
2022/12/20 10:24:12;;;;;;;;;;;22.80;29.60;;;;;;500098;237;1967;-44
2022/12/20 10:26:13;;;;;;;;;;;22.80;29.70;;;;;;499948;237;2538;-44
2022/12/20 10:28:15;;;;;;;;;;;22.70;29.70;;;;;;499900;237;1775;-44
2022/12/20 10:30:16;;;;;;;;;;;22.70;29.70;;;;;;499922;237;1841;-40
2022/12/20 10:32:17;;;;;;;;;;;22.70;29.80;;;;;;499851;237;1854;-44
2022/12/20 10:34:19;;;;;;;;;;;22.60;29.80;;;;;;499907;237;1706;-40
2022/12/20 10:36:20;;;;;;;;;;;22.60;29.80;;;;;;499785;237;1877;-43
2022/12/20 10:38:22;;;;;;;;;;;22.60;29.80;;;;;;499798;237;2518;-43
2022/12/20 10:40:23;;;;;;;;;;;22.60;29.90;;;;;;500015;237;2204;-43
2022/12/20 10:42:24;;;;;;;;;;;22.50;29.90;;;;;;499985;237;1606;-43
2022/12/20 10:44:26;;;;;;;;;;;22.50;29.90;;;;;;500092;237;1892;-44
2022/12/20 10:46:27;;;;;;;;;;;22.50;30.00;;;;;;500009;237;2184;-44
2022/12/20 10:48:29;;;;;;;;;;;22.60;30.00;;;;;;500082;237;1492;-44
2022/12/20 10:50:31;;;;;;;;;;;22.60;30.00;;;;;;500092;237;1486;-44
2022/12/20 10:52:32;;;;;;;;;;;22.50;30.00;;;;;;500080;237;1564;-44
2022/12/20 10:54:33;;;;;;;;;;;22.50;30.10;;;;;;500260;237;1595;-43
2022/12/20 10:56:35;;;;;;;;;;;22.50;30.00;;;;;;500193;237;1690;-44
2022/12/20 10:58:37;;;;;;;;;;;22.50;30.10;;;;;;500068;237;1869;-43
2022/12/20 11:00:38;;;;;;;;;;;22.50;30.10;;;;;;500134;237;1932;-44
2022/12/20 11:02:40;;;;;;;;;;;22.50;30.10;;;;;;500166;237;1455;-43
2022/12/20 11:04:41;;;;;;;;;;;22.40;30.20;;;;;;500158;237;1547;-43
2022/12/20 11:06:43;;;;;;;;;;;22.40;30.30;;;;;;500195;237;2187;-43
2022/12/20 11:08:45;;;;;;;;;;;22.30;30.30;;;;;;500200;237;1868;-43
2022/12/20 11:10:46;;;;;;;;;;;22.30;30.30;;;;;;500039;237;1627;-42
2022/12/20 11:12:47;;;;;;;;;;;22.30;30.40;;;;;;500211;237;1535;-44
2022/12/20 11:14:49;;;;;;;;;;;22.20;30.40;;;;;;500231;237;1719;-40
2022/12/20 11:16:53;;;;;;;;;;;22.20;30.50;;;;;;500254;237;1688;-44
2022/12/20 11:18:54;;;;;;;;;;;22.40;30.30;;;;;;500379;237;2012;-40
2022/12/20 11:20:57;;;;;;;;;;;22.60;30.00;;;;;;500197;237;1596;-42
2022/12/20 11:22:59;;;;;;;;;;;22.60;30.00;;;;;;500302;237;1398;-42
2022/12/20 11:25:00;;;;;;;;;;;22.60;30.00;;;;;;500232;237;1271;-43
2022/12/20 11:27:02;;;;;;;;;;;22.40;30.00;;;;;;500442;237;2141;-43
2022/12/20 11:29:03;;;;;;;;;;;22.40;30.20;;;;;;500008;237;1706;-42
2022/12/20 11:31:05;;;;;;;;;;;22.30;30.20;;;;;;500251;237;2045;-44
2022/12/20 11:33:07;;;;;;;;;;;22.20;30.30;;;;;;500182;237;1638;-43
2022/12/20 11:35:08;;;;;;;;;;;22.20;30.40;;;;;;500186;237;1872;-43
2022/12/20 11:37:10;;;;;;;;;;;22.10;30.50;;;;;;500014;237;2161;-44
2022/12/20 11:39:11;;;;;;;;;;;22.10;30.50;;;;;;500136;237;1885;-41
2022/12/20 11:41:13;;;;;;;;;;;22.10;30.60;;;;;;500287;237;1805;-43
2022/12/20 11:43:15;;;;;;;;;;;22.00;30.60;;;;;;500025;237;1817;-43
2022/12/20 11:45:16;;;;;;;;;;;22.00;30.60;;;;;;500149;237;2061;-42
2022/12/20 11:47:18;;;;;;;;;;;22.00;30.60;;;;;;500233;237;2187;-43
2022/12/20 11:49:20;;;;;;;;;;;22.00;30.60;;;;;;500309;237;1957;-43
2022/12/20 11:51:21;;;;;;;;;;;22.00;30.60;;;;;;500501;237;2371;-43
2022/12/20 11:53:23;;;;;;;;;;;22.00;30.60;;;;;;500206;237;1683;-44
2022/12/20 11:55:24;;;;;;;;;;;22.00;30.70;;;;;;500228;237;1667;-44
2022/12/20 11:57:26;;;;;;;;;;;22.00;30.70;;;;;;500109;237;1678;-43
2022/12/20 11:59:27;;;;;;;;;;;22.00;30.80;;;;;;500196;237;1895;-43
2022/12/20 12:01:29;;;;;;;;;;;21.90;30.70;;;;;;500165;238;2496;-43
2022/12/20 12:03:31;;;;;;;;;;;21.90;30.80;;;;;;500052;238;2275;-43
2022/12/20 12:05:32;;;;;;;;;;;21.90;30.80;;;;;;500110;237;2263;-44
2022/12/20 12:07:34;;;;;;;;;;;21.90;30.80;;;;;;500011;237;2195;-43
2022/12/20 12:09:35;;;;;;;;;;;21.90;30.80;;;;;;499945;237;1702;-43